createdAt,value
2017-08-07T00:02:02.489Z,2.20
2017-08-07T00:04:29.291Z,2.70
2017-08-07T00:06:55.464Z,2.80
2017-08-07T00:09:21.677Z,2.10
2017-08-07T00:11:47.874Z,2.33
2017-08-07T00:14:14.979Z,3.10
2017-08-07T00:16:41.151Z,2.60
2017-08-07T00:19:07.359Z,2.53
2017-08-07T00:21:33.523Z,2.90
2017-08-07T00:24:00.486Z,2.60
2017-08-07T00:26:26.654Z,2.50
2017-08-07T00:28:52.835Z,2.40
2017-08-07T00:31:19.754Z,2.80
2017-08-07T00:33:45.907Z,3.43
2017-08-07T00:36:12.111Z,3.03
2017-08-07T00:38:39.066Z,3.30
2017-08-07T00:41:05.953Z,3.10
2017-08-07T00:43:32.138Z,2.73
2017-08-07T00:45:59.049Z,3.03
2017-08-07T00:48:25.566Z,2.50
2017-08-07T00:50:51.692Z,2.60
2017-08-07T00:53:17.867Z,3.00
2017-08-07T00:55:44.103Z,3.43
2017-08-07T00:58:10.998Z,3.10
2017-08-07T01:00:37.176Z,3.30
2017-08-07T01:03:04.097Z,3.20
2017-08-07T01:05:30.274Z,2.73
2017-08-07T01:07:56.405Z,2.50
2017-08-07T01:10:22.546Z,2.63
2017-08-07T01:12:48.716Z,3.30
2017-08-07T01:15:14.890Z,3.20
2017-08-07T01:17:41.031Z,2.80
2017-08-07T01:20:07.162Z,3.07
2017-08-07T01:22:33.334Z,3.00
2017-08-07T01:24:59.466Z,3.10
2017-08-07T01:27:26.383Z,3.03
2017-08-07T01:29:52.524Z,2.90
2017-08-07T01:32:18.695Z,3.20
2017-08-07T01:34:44.865Z,3.80
2017-08-07T01:37:11.026Z,3.77
2017-08-07T01:39:38.014Z,3.20
2017-08-07T01:42:04.174Z,2.63
2017-08-07T01:44:30.327Z,3.20
2017-08-07T01:46:57.250Z,3.20
2017-08-07T01:49:23.441Z,3.07
2017-08-07T01:51:49.607Z,3.50
2017-08-07T01:54:15.803Z,2.77
2017-08-07T01:56:42.001Z,2.90
2017-08-07T01:59:08.226Z,2.90
2017-08-07T02:01:35.187Z,3.20
2017-08-07T02:04:01.375Z,2.97
2017-08-07T02:06:27.543Z,3.00
2017-08-07T02:08:53.717Z,3.17
2017-08-07T02:11:19.847Z,3.50
2017-08-07T02:13:46.001Z,2.90
2017-08-07T02:16:12.914Z,3.60
2017-08-07T02:18:39.096Z,3.20
2017-08-07T02:21:05.286Z,3.37
2017-08-07T02:23:31.461Z,3.07
2017-08-07T02:25:57.635Z,3.23
2017-08-07T02:28:23.780Z,3.20
2017-08-07T02:30:49.943Z,3.30
2017-08-07T02:33:16.115Z,3.60
2017-08-07T02:35:42.296Z,2.97
2017-08-07T02:38:08.473Z,3.13
2017-08-07T02:40:34.633Z,4.00
2017-08-07T02:43:00.798Z,4.33
2017-08-07T02:45:26.981Z,4.20
2017-08-07T02:47:53.122Z,3.73
2017-08-07T02:50:19.245Z,3.27
2017-08-07T02:52:45.424Z,3.60
2017-08-07T02:55:11.565Z,3.50
2017-08-07T02:57:37.733Z,3.90
2017-08-07T03:00:03.913Z,3.77
2017-08-07T03:02:30.042Z,3.90
2017-08-07T03:04:56.221Z,3.47
2017-08-07T03:07:22.387Z,4.00
2017-08-07T03:09:48.555Z,3.27
2017-08-07T03:12:15.451Z,4.07
2017-08-07T03:14:41.603Z,3.80
2017-08-07T03:17:07.798Z,3.70
2017-08-07T03:19:33.934Z,4.07
2017-08-07T03:22:00.054Z,3.40
2017-08-07T03:24:26.202Z,3.57
2017-08-07T03:26:52.384Z,3.40
2017-08-07T03:29:18.530Z,4.10
2017-08-07T03:31:44.687Z,3.30
2017-08-07T03:34:10.822Z,3.50
2017-08-07T03:36:38.711Z,3.37
2017-08-07T03:39:04.873Z,3.97
2017-08-07T03:41:31.054Z,3.67
2017-08-07T03:43:57.201Z,4.50
2017-08-07T03:46:23.366Z,4.23
2017-08-07T03:48:49.517Z,4.07
2017-08-07T03:51:15.687Z,3.50
2017-08-07T03:53:41.837Z,3.70
2017-08-07T03:56:08.030Z,3.93
2017-08-07T03:58:34.927Z,3.53
2017-08-07T04:01:01.091Z,3.73
2017-08-07T04:03:28.002Z,3.33
2017-08-07T04:05:54.155Z,3.60
2017-08-07T04:08:20.352Z,4.10
2017-08-07T04:10:46.510Z,3.27
2017-08-07T04:13:12.681Z,3.37
2017-08-07T04:15:38.848Z,4.13
2017-08-07T04:18:05.005Z,3.57
2017-08-07T04:20:31.188Z,3.00
2017-08-07T04:22:57.342Z,3.63
2017-08-07T04:25:23.551Z,3.87
2017-08-07T04:27:49.701Z,3.50
2017-08-07T04:30:15.889Z,3.07
2017-08-07T04:32:42.013Z,3.87
2017-08-07T04:35:08.190Z,4.20
2017-08-07T04:37:34.362Z,3.33
2017-08-07T04:40:00.512Z,3.67
2017-08-07T04:42:26.726Z,3.37
2017-08-07T04:44:52.905Z,4.47
2017-08-07T04:47:19.834Z,3.77
2017-08-07T04:49:45.969Z,4.30
2017-08-07T04:52:12.148Z,3.67
2017-08-07T04:54:39.430Z,3.90
2017-08-07T04:57:05.621Z,4.30
2017-08-07T04:59:31.800Z,3.30
2017-08-07T05:01:57.992Z,4.03
2017-08-07T05:04:24.199Z,4.20
2017-08-07T05:06:50.332Z,3.63
2017-08-07T05:09:16.506Z,4.20
2017-08-07T05:11:42.676Z,3.77
2017-08-07T05:14:09.607Z,4.80
2017-08-07T05:16:36.546Z,4.20
2017-08-07T05:19:02.722Z,4.00
2017-08-07T05:21:28.902Z,3.27
2017-08-07T05:23:55.053Z,3.90
2017-08-07T05:26:21.258Z,3.63
2017-08-07T05:28:47.394Z,4.40
2017-08-07T05:31:14.273Z,4.87
2017-08-07T05:33:40.506Z,4.50
2017-08-07T05:36:06.692Z,5.10
2017-08-07T05:38:33.594Z,4.50
2017-08-07T05:40:59.795Z,4.17
2017-08-07T05:43:25.948Z,4.67
2017-08-07T05:45:52.103Z,4.10
2017-08-07T05:48:18.294Z,4.00
2017-08-07T05:50:44.424Z,4.07
2017-08-07T05:53:10.561Z,3.97
2017-08-07T05:55:36.773Z,3.53
2017-08-07T05:58:02.975Z,3.50
2017-08-07T06:00:29.870Z,4.27
2017-08-07T06:02:56.052Z,4.13
2017-08-07T06:05:23.126Z,4.17
2017-08-07T06:07:49.304Z,3.80
2017-08-07T06:10:15.460Z,3.90
2017-08-07T06:12:41.608Z,3.70
2017-08-07T06:15:07.772Z,4.03
2017-08-07T06:17:33.916Z,3.73
2017-08-07T06:20:00.089Z,3.83
2017-08-07T06:22:26.258Z,3.97
2017-08-07T06:24:52.414Z,4.10
2017-08-07T06:27:19.305Z,4.07
2017-08-07T06:29:45.524Z,3.57
2017-08-07T06:32:11.702Z,3.73
2017-08-07T06:34:38.648Z,3.80
2017-08-07T06:37:05.583Z,4.47
2017-08-07T06:39:31.724Z,4.40
2017-08-07T06:41:58.655Z,4.27
2017-08-07T06:44:25.581Z,3.87
2017-08-07T06:46:51.742Z,3.77
2017-08-07T06:49:18.667Z,4.47
2017-08-07T06:51:44.842Z,4.10
2017-08-07T06:54:11.047Z,4.43
2017-08-07T06:56:37.970Z,4.27
2017-08-07T06:59:04.155Z,4.30
2017-08-07T07:01:30.295Z,4.20
2017-08-07T07:03:56.852Z,4.70
2017-08-07T07:06:23.777Z,3.70
2017-08-07T07:08:50.082Z,4.63
2017-08-07T07:11:16.221Z,4.60
2017-08-07T07:13:42.355Z,4.10
2017-08-07T07:16:08.543Z,4.00
2017-08-07T07:18:35.822Z,3.83
2017-08-07T07:21:01.979Z,3.70
2017-08-07T07:23:28.158Z,4.10
2017-08-07T07:25:55.054Z,4.37
2017-08-07T07:28:21.224Z,5.00
2017-08-07T07:30:48.126Z,3.80
2017-08-07T07:33:14.350Z,4.10
2017-08-07T07:35:40.541Z,4.20
2017-08-07T07:38:06.734Z,4.00
2017-08-07T07:40:32.918Z,3.57
2017-08-07T07:42:59.153Z,4.00
2017-08-07T07:45:25.329Z,3.73
2017-08-07T07:47:51.507Z,3.80
2017-08-07T07:50:17.704Z,4.37
2017-08-07T07:52:43.883Z,3.60
2017-08-07T07:55:10.093Z,3.47
2017-08-07T07:57:36.282Z,3.87
2017-08-07T08:00:02.841Z,3.27
2017-08-07T08:02:29.062Z,3.60
2017-08-07T08:04:55.234Z,3.67
2017-08-07T08:07:21.394Z,3.60
2017-08-07T08:09:48.311Z,3.43
2017-08-07T08:12:14.514Z,3.10
2017-08-07T08:14:40.642Z,3.57
2017-08-07T08:17:06.783Z,3.50
2017-08-07T08:19:32.984Z,3.70
2017-08-07T08:21:59.201Z,2.60
2017-08-07T08:24:25.404Z,3.40
2017-08-07T08:26:52.313Z,3.10
2017-08-07T08:29:18.494Z,3.50
2017-08-07T08:31:44.680Z,3.60
2017-08-07T08:34:10.872Z,3.73
2017-08-07T08:36:37.034Z,3.53
2017-08-07T08:39:03.238Z,3.27
2017-08-07T08:41:29.419Z,3.30
2017-08-07T08:43:56.341Z,3.20
2017-08-07T08:46:22.497Z,3.40
2017-08-07T08:48:49.454Z,2.80
2017-08-07T08:51:15.663Z,3.40
2017-08-07T08:53:41.853Z,3.37
2017-08-07T08:56:08.055Z,3.27
2017-08-07T08:58:34.360Z,3.90
2017-08-07T09:01:01.288Z,3.73
2017-08-07T09:03:29.240Z,3.23
2017-08-07T09:05:55.445Z,3.37
2017-08-07T09:08:21.573Z,4.00
2017-08-07T09:10:47.719Z,3.50
2017-08-07T09:13:13.922Z,3.83
2017-08-07T09:15:40.075Z,3.70
2017-08-07T09:18:06.271Z,3.40
2017-08-07T09:20:32.462Z,3.27
2017-08-07T09:22:59.362Z,3.07
2017-08-07T09:25:25.584Z,3.73
2017-08-07T09:27:51.743Z,3.17
2017-08-07T09:30:17.898Z,2.90
2017-08-07T09:32:44.785Z,3.17
2017-08-07T09:35:10.966Z,4.07
2017-08-07T09:37:37.862Z,3.30
2017-08-07T09:40:04.016Z,2.80
2017-08-07T09:42:30.233Z,2.90
2017-08-07T09:44:56.554Z,2.80
2017-08-07T09:47:22.726Z,3.07
2017-08-07T09:49:49.647Z,2.83
2017-08-07T09:52:15.805Z,3.23
2017-08-07T09:54:42.760Z,2.87
2017-08-07T09:57:09.705Z,3.07
2017-08-07T09:59:35.887Z,3.00
2017-08-07T10:02:02.043Z,2.60
2017-08-07T10:04:28.966Z,2.83
2017-08-07T10:06:55.139Z,2.70
2017-08-07T10:09:21.272Z,3.30
2017-08-07T10:11:47.420Z,3.00
2017-08-07T10:14:13.593Z,2.53
2017-08-07T10:16:40.123Z,2.30
2017-08-07T10:19:06.291Z,2.63
2017-08-07T10:21:32.446Z,2.53
2017-08-07T10:23:58.655Z,2.77
2017-08-07T10:26:24.934Z,2.67
2017-08-07T10:28:51.073Z,3.03
2017-08-07T10:31:18.043Z,2.80
2017-08-07T10:33:44.252Z,2.90
2017-08-07T10:36:11.152Z,2.77
2017-08-07T10:38:37.337Z,2.70
2017-08-07T10:41:04.242Z,2.63
2017-08-07T10:43:30.411Z,2.90
2017-08-07T10:45:57.395Z,2.53
2017-08-07T10:48:23.589Z,2.67
2017-08-07T10:50:49.755Z,2.80
2017-08-07T10:53:15.952Z,2.53
2017-08-07T10:55:42.133Z,2.70
2017-08-07T10:58:08.302Z,2.50
2017-08-07T11:00:34.722Z,2.13
2017-08-07T11:03:01.706Z,2.47
2017-08-07T11:05:27.851Z,2.47
2017-08-07T11:07:54.002Z,2.27
2017-08-07T11:10:20.142Z,1.90
2017-08-07T11:12:47.042Z,2.17
2017-08-07T11:15:13.216Z,1.87
2017-08-07T11:17:40.132Z,1.80
2017-08-07T11:20:06.299Z,2.00
2017-08-07T11:22:33.270Z,2.20
2017-08-07T11:24:59.424Z,1.97
2017-08-07T11:27:25.637Z,3.00
2017-08-07T11:29:51.803Z,2.30
2017-08-07T11:32:17.994Z,5.03
2017-08-07T11:34:44.155Z,2.67
2017-08-07T11:37:10.719Z,2.60
2017-08-07T11:39:37.719Z,2.70
2017-08-07T11:42:03.902Z,2.60
2017-08-07T11:44:30.069Z,2.07
2017-08-07T11:46:56.252Z,2.30
2017-08-07T11:49:23.128Z,2.70
2017-08-07T11:51:49.349Z,2.70
2017-08-07T11:54:15.522Z,2.20
2017-08-07T11:56:41.728Z,2.57
2017-08-07T11:59:07.892Z,2.33
2017-08-07T12:01:34.136Z,2.10
2017-08-07T12:04:01.097Z,2.00
2017-08-07T12:06:27.288Z,2.30
2017-08-07T12:08:53.435Z,2.20
2017-08-07T12:11:20.342Z,2.40
2017-08-07T12:13:46.502Z,2.53
2017-08-07T12:16:13.422Z,2.57
2017-08-07T12:18:39.609Z,2.53
2017-08-07T12:21:05.785Z,2.60
2017-08-07T12:23:32.060Z,2.10
2017-08-07T12:25:58.252Z,2.37
2017-08-07T12:28:24.427Z,2.57
2017-08-07T12:30:50.586Z,2.27
2017-08-07T12:33:16.730Z,2.50
2017-08-07T12:35:42.892Z,2.10
2017-08-07T12:38:09.065Z,2.73
2017-08-07T12:40:35.312Z,2.40
2017-08-07T12:43:01.519Z,2.60
2017-08-07T12:45:28.416Z,2.07
2017-08-07T12:47:54.583Z,3.10
2017-08-07T12:50:20.738Z,2.80
2017-08-07T12:52:46.952Z,3.27
2017-08-07T12:55:13.874Z,3.37
2017-08-07T12:57:40.423Z,3.13
2017-08-07T13:00:06.612Z,3.33
2017-08-07T13:02:32.775Z,2.90
2017-08-07T13:04:58.966Z,2.73
2017-08-07T13:07:25.861Z,2.67
2017-08-07T13:09:52.071Z,2.57
2017-08-07T13:12:18.234Z,2.80
2017-08-07T13:14:45.451Z,2.37
2017-08-07T13:17:11.657Z,2.73
2017-08-07T13:19:37.918Z,2.60
2017-08-07T13:22:04.073Z,2.80
2017-08-07T13:24:30.986Z,2.30
2017-08-07T13:26:57.184Z,2.63
2017-08-07T13:29:23.326Z,2.80
2017-08-07T13:31:50.443Z,2.30
2017-08-07T13:34:17.367Z,2.63
2017-08-07T13:36:43.513Z,2.73
2017-08-07T13:39:10.438Z,2.60
2017-08-07T13:41:36.602Z,2.97
2017-08-07T13:44:03.548Z,2.70
2017-08-07T13:46:30.482Z,2.33
2017-08-07T13:48:57.402Z,2.67
2017-08-07T13:51:23.624Z,2.83
2017-08-07T13:53:49.799Z,2.70
2017-08-07T13:56:16.015Z,2.17
2017-08-07T13:58:42.215Z,2.10
2017-08-07T14:01:08.423Z,2.23
2017-08-07T14:03:34.589Z,2.00
2017-08-07T14:06:00.763Z,2.43
2017-08-07T14:08:26.923Z,2.40
2017-08-07T14:10:53.104Z,1.80
2017-08-07T14:13:19.288Z,2.43
2017-08-07T14:15:45.464Z,2.33
2017-08-07T14:18:11.695Z,2.50
2017-08-07T14:20:37.826Z,2.00
2017-08-07T14:23:03.996Z,2.50
2017-08-07T14:25:31.312Z,2.70
2017-08-07T14:27:57.475Z,2.33
2017-08-07T14:30:23.686Z,2.50
2017-08-07T14:32:49.866Z,2.90
2017-08-07T14:35:16.391Z,2.30
2017-08-07T14:37:43.319Z,2.93
2017-08-07T14:40:10.975Z,3.10
2017-08-07T14:42:37.210Z,3.03
2017-08-07T14:45:03.391Z,2.73
2017-08-07T14:47:29.561Z,2.43
2017-08-07T14:49:56.499Z,2.90
2017-08-07T14:52:22.666Z,2.83
2017-08-07T14:54:50.313Z,3.53
2017-08-07T14:57:16.873Z,2.50
2017-08-07T14:59:43.043Z,2.83
2017-08-07T15:02:09.197Z,2.67
2017-08-07T15:04:35.354Z,3.00
2017-08-07T15:07:01.522Z,2.60
2017-08-07T15:09:28.719Z,2.50
2017-08-07T15:11:55.739Z,2.60
2017-08-07T15:14:21.923Z,2.20
2017-08-07T15:16:48.884Z,2.10
2017-08-07T15:19:15.984Z,2.07
2017-08-07T15:21:43.777Z,2.40
2017-08-07T15:24:25.571Z,2.13
2017-08-07T15:26:52.587Z,2.57
2017-08-07T15:29:18.794Z,2.30
2017-08-07T15:31:44.976Z,2.20
2017-08-07T15:34:12.306Z,2.40
2017-08-07T15:36:39.555Z,2.60
2017-08-07T15:39:06.239Z,2.80
2017-08-07T15:41:34.896Z,2.83
2017-08-07T15:44:02.937Z,2.40
2017-08-07T15:46:29.840Z,2.40
2017-08-07T15:48:57.505Z,2.50
2017-08-07T15:51:24.342Z,2.20
2017-08-07T15:53:50.512Z,2.40
2017-08-07T15:56:16.702Z,2.60
2017-08-07T15:58:42.902Z,2.37
2017-08-07T16:01:09.855Z,3.00
2017-08-07T16:03:36.791Z,2.60
2017-08-07T16:06:03.702Z,2.23
2017-08-07T16:08:29.869Z,2.80
2017-08-07T16:10:56.786Z,2.60
2017-08-07T16:13:22.945Z,2.77
2017-08-07T16:15:49.155Z,2.57
2017-08-07T16:18:16.064Z,3.00
2017-08-07T16:20:42.273Z,2.50
2017-08-07T16:23:08.512Z,2.57
2017-08-07T16:25:34.723Z,2.40
2017-08-07T16:28:00.861Z,2.90
2017-08-07T16:30:30.986Z,3.10
2017-08-07T16:32:57.164Z,2.77
2017-08-07T16:35:24.075Z,2.70
2017-08-07T16:37:50.273Z,2.97
2017-08-07T16:40:16.412Z,2.70
2017-08-07T16:42:43.713Z,2.70
2017-08-07T16:45:10.691Z,2.93
2017-08-07T16:47:37.410Z,3.47
2017-08-07T16:50:04.338Z,2.77
2017-08-07T16:52:30.533Z,3.63
2017-08-07T16:54:56.744Z,3.40
2017-08-07T16:57:22.918Z,3.10
2017-08-07T16:59:49.110Z,2.80
2017-08-07T17:02:16.264Z,3.20
2017-08-07T17:04:42.515Z,3.00
2017-08-07T17:07:08.729Z,2.63
2017-08-07T17:09:34.911Z,2.90
2017-08-07T17:12:01.810Z,4.67
2017-08-07T17:14:27.987Z,7.97
2017-08-07T17:16:54.881Z,3.30
2017-08-07T17:19:21.098Z,2.60
2017-08-07T17:21:47.294Z,3.20
2017-08-07T17:24:13.458Z,3.13
2017-08-07T17:26:39.768Z,3.67
2017-08-07T17:29:05.984Z,3.50
2017-08-07T17:31:32.133Z,3.23
2017-08-07T17:33:58.353Z,2.60
2017-08-07T17:36:24.558Z,2.80
2017-08-07T17:38:51.483Z,2.77
2017-08-07T17:41:17.675Z,3.23
2017-08-07T17:43:45.329Z,2.93
2017-08-07T17:46:11.562Z,2.93
2017-08-07T17:48:37.798Z,3.00
2017-08-07T17:51:05.742Z,3.57
2017-08-07T17:53:31.922Z,2.87
2017-08-07T17:55:58.123Z,2.73
2017-08-07T17:58:24.347Z,3.20
2017-08-07T18:01:05.458Z,2.60
2017-08-07T18:03:31.942Z,3.00
2017-08-07T18:05:58.180Z,3.10
2017-08-07T18:08:24.329Z,2.80
2017-08-07T18:10:50.895Z,3.13
2017-08-07T18:13:17.903Z,3.27
2017-08-07T18:15:44.151Z,3.57
2017-08-07T18:18:11.106Z,3.90
2017-08-07T18:20:37.262Z,2.70
2017-08-07T18:23:04.995Z,2.87
2017-08-07T18:25:31.182Z,3.30
2017-08-07T18:27:57.335Z,3.10
2017-08-07T18:30:23.562Z,3.20
2017-08-07T18:32:49.753Z,3.17
2017-08-07T18:35:15.920Z,2.93
2017-08-07T18:37:42.986Z,3.17
2017-08-07T18:40:09.207Z,3.60
2017-08-07T18:42:35.382Z,3.80
2017-08-07T18:45:03.635Z,3.90
2017-08-07T18:47:31.776Z,3.10
2017-08-07T18:49:57.942Z,2.80
2017-08-07T18:52:24.208Z,2.97
2017-08-07T18:54:50.389Z,2.77
2017-08-07T18:57:18.922Z,3.23
2017-08-07T18:59:45.147Z,3.33
2017-08-07T19:11:56.356Z,3.90
2017-08-07T19:14:24.774Z,3.47
2017-08-07T19:16:50.973Z,2.97
2017-08-07T19:19:17.943Z,3.37
2017-08-07T19:21:44.679Z,4.10
2017-08-07T19:24:10.926Z,4.23
2017-08-07T19:26:37.745Z,3.20
2017-08-07T19:29:07.079Z,3.53
2017-08-07T19:31:33.533Z,2.93
2017-08-07T19:33:59.744Z,3.63
2017-08-07T19:36:27.084Z,3.30
2017-08-07T19:38:53.293Z,4.00
2017-08-07T19:41:19.482Z,3.43
2017-08-07T19:43:45.728Z,3.60
2017-08-07T19:46:12.816Z,3.73
2017-08-07T19:48:39.678Z,3.23
2017-08-07T19:51:06.258Z,4.57
2017-08-07T19:53:33.550Z,4.27
2017-08-07T19:55:59.812Z,4.10
2017-08-07T19:58:27.732Z,4.20
2017-08-07T20:00:54.860Z,3.73
2017-08-07T20:03:21.901Z,4.13
2017-08-07T20:05:48.263Z,4.60
2017-08-07T20:08:14.496Z,3.70
2017-08-07T20:10:41.974Z,3.63
2017-08-07T20:13:08.194Z,4.60
2017-08-07T20:15:34.432Z,4.03
2017-08-07T20:18:02.310Z,4.03
2017-08-07T20:20:29.529Z,3.37
2017-08-07T20:22:55.709Z,3.73
2017-08-07T20:25:21.927Z,3.27
2017-08-07T20:27:49.287Z,3.30
2017-08-07T20:30:16.289Z,3.43
2017-08-07T20:32:45.826Z,4.07
2017-08-07T20:35:12.082Z,3.70
2017-08-07T20:37:38.303Z,3.60
2017-08-07T20:40:04.522Z,3.70
2017-08-07T20:42:31.620Z,3.60
2017-08-07T20:44:57.869Z,3.00
2017-08-07T20:47:24.133Z,3.40
2017-08-07T20:49:50.345Z,3.83
2017-08-07T20:52:16.489Z,3.00
2017-08-07T20:54:42.690Z,3.17
2017-08-07T20:57:08.951Z,3.80
2017-08-07T20:59:35.195Z,4.40
2017-08-07T21:02:01.382Z,3.80
2017-08-07T21:04:27.549Z,4.13
2017-08-07T21:06:53.723Z,4.20
2017-08-07T21:09:20.154Z,4.10
2017-08-07T21:11:46.415Z,4.53
2017-08-07T21:14:12.710Z,4.20
2017-08-07T21:16:38.898Z,4.37
2017-08-07T21:19:05.078Z,4.53
2017-08-07T21:21:31.315Z,4.57
2017-08-07T21:23:57.493Z,4.30
2017-08-07T21:26:23.662Z,4.37
2017-08-07T21:28:50.239Z,4.63
2017-08-07T21:31:16.449Z,4.40
2017-08-07T21:33:42.610Z,4.30
2017-08-07T21:36:09.467Z,4.40
2017-08-07T21:38:35.642Z,4.33
2017-08-07T21:41:01.833Z,3.90
2017-08-07T21:43:28.785Z,4.30
2017-08-07T21:45:54.934Z,3.70
2017-08-07T21:48:21.114Z,3.97
2017-08-07T21:50:47.275Z,3.90
2017-08-07T21:53:13.413Z,4.27
2017-08-07T21:55:39.602Z,3.73
2017-08-07T21:58:06.534Z,4.23
2017-08-07T22:00:32.726Z,3.50
2017-08-07T22:02:58.939Z,4.10
2017-08-07T22:05:27.304Z,4.10
2017-08-07T22:07:53.474Z,4.10
2017-08-07T22:10:20.054Z,4.37
2017-08-07T22:12:46.985Z,4.00
2017-08-07T22:15:13.214Z,4.43
2017-08-07T22:17:39.414Z,4.20
2017-08-07T22:20:05.686Z,3.93
2017-08-07T22:22:31.873Z,4.13
2017-08-07T22:24:59.151Z,4.10
2017-08-07T22:27:25.331Z,4.33
2017-08-07T22:29:51.475Z,4.60
2017-08-07T22:32:17.663Z,4.43
2017-08-07T22:34:44.601Z,4.80
2017-08-07T22:37:10.785Z,4.87
2017-08-07T22:39:36.954Z,5.03
2017-08-07T22:42:03.895Z,4.63
2017-08-07T22:44:30.082Z,4.53
2017-08-07T22:46:56.276Z,4.60
2017-08-07T22:49:22.459Z,4.30
2017-08-07T22:51:48.694Z,3.83
2017-08-07T22:54:14.874Z,4.40
2017-08-07T22:56:41.030Z,4.70
2017-08-07T22:59:08.890Z,4.40
2017-08-07T23:01:35.066Z,4.90
2017-08-07T23:04:01.954Z,4.40
2017-08-07T23:06:28.137Z,4.40
2017-08-07T23:08:55.035Z,3.80
2017-08-07T23:11:21.232Z,3.33
2017-08-07T23:13:47.410Z,4.23
2017-08-07T23:16:15.079Z,4.50
2017-08-07T23:18:41.260Z,4.10
2017-08-07T23:21:07.445Z,4.10
2017-08-07T23:23:33.683Z,4.23
2017-08-07T23:26:00.602Z,4.30
2017-08-07T23:28:26.761Z,4.10
2017-08-07T23:30:52.960Z,4.37
2017-08-07T23:33:19.154Z,4.00
2017-08-07T23:35:45.327Z,4.73
2017-08-07T23:38:11.460Z,4.67
2017-08-07T23:40:37.616Z,4.63
2017-08-07T23:43:03.754Z,5.17
2017-08-07T23:45:29.911Z,4.30
2017-08-07T23:47:56.823Z,4.37
2017-08-07T23:50:22.994Z,3.90
2017-08-07T23:52:50.979Z,4.33
2017-08-07T23:55:17.127Z,3.90
2017-08-07T23:57:44.073Z,4.30
